Remo Rieder

Scout - Zurich
3 Apr 2027
Samstag
Verarbeitung

Persönlichkeit

Anpassungsfähigkeit (8) Ehrgeiz (6) Kontroverse (18) Loyalität (2) Druck (20) Professionalität (16) Fairness (20) Temperament (19)

Profil

Trainerstil Demokratisch
Lizenz Kontinentale C
Entschlossenheit 11
Menschenführung 5
Motivation 9
Disziplin 13
Arbeitszufriedenheit
100%
Ermüdung
0%
Rolle Scout
Gehalt 99.9K p/W
Vertrag 14.03.2028

Leistung

Verhalten Gut
Trainingseffektivität
49%
Spielerentwicklung
55%
Verletzungsprävention
45%
Taktische Umsetzung
65%

Letzte Ereignisse

Spieler begutachtet jetzt
Nahm an einer Scouting-Besprechung teil jetzt
Empfahl ein Transferziel jetzt
Nahm an einer Scouting-Besprechung teil jetzt
Nahm an einer Scouting-Besprechung teil jetzt
Nahm an einer Scouting-Besprechung teil jetzt
Spieler begutachtet 7T her
Spieler begutachtet 7T her

Aktuell beobachtet

172
Spieler Verein Status Fähigkeit Vertrauen Beobachtet Zuletzt beobachtet Letzte Stimme
Abdul Bukari WAFA Aktiv 92 / 88 40% 2 02.04.2027 -
Moncef Zekri Sporting CP Aktiv 93 / 108 40% 2 02.04.2027 -
Felix Appiah WAFA Aktiv 99 / 99 40% 2 02.04.2027 -
Christ Inao Oulaï Fiorentina Aktiv 140 / 146 40% 2 30.03.2027 -
Lucas Jetten Cambuur Aktiv 109 / 116 40% 1 30.03.2027 -
Alpha Touré FC Metz Aktiv 108 / 117 40% 1 30.03.2027 -
Chris Rigg Sunderland Aktiv 132 / 145 40% 3 29.03.2027 -
Riyad Idrissi Cagliari Aktiv 121 / 132 40% 2 29.03.2027 -
Alessio Insignito Spezia Aktiv 93 / 103 40% 1 29.03.2027 -
Honest Ahanor Atalanta Aktiv 128 / 134 40% 2 28.03.2027 -
Victor Ehibe Real Bamako Aktiv 81 / 93 40% 1 28.03.2027 -
Jake Batty Burton Albion Aktiv 100 / 99 40% 1 28.03.2027 -
Louis Leroux FC Nantes Aktiv 120 / 125 40% 2 27.03.2027 -
Jobe Bellingham RB Leipzig Aktiv 132 / 140 40% 2 27.03.2027 -
Salvador Blopá Sporting CP Aktiv 111 / 119 40% 2 27.03.2027 -
Tiago Freitas Benfica Aktiv 108 / 112 40% 1 26.03.2027 -
Rhys Chadwick Peterborough United Aktiv 96 / 109 40% 1 26.03.2027 -
Toni Tamarit Alverca Aktiv 111 / 120 40% 2 25.03.2027 -
Bernardo Lima Porto Aktiv 100 / 107 40% 1 25.03.2027 -
Alexis Vossah Toulouse FC Aktiv 118 / 129 40% 1 24.03.2027 -
Rabby Nzingoula West Bromwich Albion Aktiv 117 / 128 40% 1 24.03.2027 -
Gonçalo Oliveira Benfica Aktiv 105 / 114 40% 1 23.03.2027 -
Dylan Lawlor Cardiff City Aktiv 112 / 116 40% 1 23.03.2027 -
Axel Tape Bayer Leverkusen Aktiv 130 / 136 40% 4 22.03.2027 -
Chema Andrés VfB Stuttgart Aktiv 133 / 141 40% 1 22.03.2027 -
Vinícius Lira Santos Aktiv 109 / 126 40% 2 21.03.2027 -
Riley Owen Pergolettese Aktiv 102 / 105 40% 1 20.03.2027 -
Itumeleng Zungu Free State Stars Aktiv 120 / 112 40% 1 20.03.2027 -
Eivind Helland Bologna Aktiv 132 / 127 40% 1 18.03.2027 -
Daniel Banjaqui Benfica Aktiv 108 / 119 40% 1 18.03.2027 -
Juan David Arizala Udinese Aktiv 127 / 125 40% 1 18.03.2027 -
Elias Baum Eintracht Frankfurt Aktiv 123 / 126 40% 1 17.03.2027 -
Surprise Manthosi Polokwane City Aktiv 95 / 101 40% 1 17.03.2027 -
Betim Fazliji St. Gallen Aktiv 107 / 116 76% 1 11.01.2027 Befürworten
Frans Krätzig Red Bull Salzburg Abgelehnt 129 / 132 40% 3 08.01.2027 Ablehnen
Helinho Toluca Aktiv 141 / 138 40% 1 08.01.2027 -
Angelo Gattermayer Wolfsberger AC Aktiv 120 / 118 40% 1 08.01.2027 -
Yorbe Vertessen Red Bull Salzburg Verloren 126 / 132 40% 6 30.12.2026 -
Mathias Kvistgaarden Norwich City Aktiv 125 / 116 40% 2 30.12.2026 -
Felipe Augusto Zenit Aktiv 124 / 136 40% 2 30.12.2026 -
Claudy M'Buyi Rapid Wien Aktiv 112 / 110 40% 9 29.12.2026 -
Seedy Jatta Sturm Graz Aktiv 118 / 120 40% 5 29.12.2026 -
Suleman Sani RB Leipzig Aktiv 127 / 123 40% 2 29.12.2026 -
Robinho Junior Santos Aktiv 114 / 120 40% 1 29.12.2026 -
Cian Ashford Cardiff City Aktiv 121 / 124 40% 1 29.12.2026 -
Relebohile Mofokeng Orlando Pirates Aktiv 122 / 129 40% 1 29.12.2026 -
Richard Koné Queens Park Rangers Aktiv 125 / 129 40% 1 29.12.2026 -
Itumeleng Tau Ajax Cape Town Aktiv 113 / 109 40% 3 27.12.2026 -
Matthias Seidl Rapid Wien Aktiv 122 / 124 40% 1 27.12.2026 -
Sergey Pinyaev Lokomotiv Moscow Aktiv 136 / 122 40% 1 27.12.2026 -
José Barreto Fehervar Aktiv 117 / 105 40% 2 25.12.2026 -
Ousmane Diawara Altach Aktiv 108 / 104 40% 5 24.12.2026 -
Everton Bala Levski Aktiv 137 / 133 40% 3 24.12.2026 -
Percy Erasmus SuperSport United Aktiv 120 / 132 40% 3 24.12.2026 -
Julian Baumgartner Mattersburg Aktiv 102 / 101 40% 4 23.12.2026 -
Dom Ballard Leyton Orient Aktiv 124 / 128 40% 4 23.12.2026 -
Cundo Leicester City Aktiv 123 / 134 40% 1 23.12.2026 -
Ollie Scarles West Ham United Aktiv 128 / 134 40% 1 23.12.2026 Mehr Infos nötig
Cyriaque Irié SC Freiburg Aktiv 116 / 127 40% 1 23.12.2026 -
Younes Ebnoutalib Eintracht Frankfurt Aktiv 126 / 133 40% 1 21.12.2026 -
Robert FC Copenhagen Aktiv 123 / 131 40% 3 20.12.2026 -
Luís Guilherme Sporting CP Verloren 129 / 132 40% 1 20.12.2026 -
Petter Nosa Dahl Rapid Wien Aktiv 121 / 124 40% 5 18.12.2026 -
Jerome Karelse Golden Arrows Aktiv 110 / 106 40% 4 18.12.2026 -
Yousef Salech Cardiff City Aktiv 130 / 128 40% 1 18.12.2026 -
James Dornelly Peterborough United Aktiv 99 / 109 40% 1 18.12.2026 -
Julian von Moos Grasshopper Aktiv 111 / 118 40% 3 16.12.2026 -
Keagan Hlatshwayo SuperSport United Aktiv 123 / 112 40% 2 16.12.2026 -
Brayan León Mamelodi Sundowns Aktiv 115 / 117 40% 2 16.12.2026 -
Konstantinos Karetsas Borussia Dortmund Aktiv 123 / 126 40% 1 16.12.2026 -
Josh Coburn Millwall Aktiv 122 / 117 40% 1 16.12.2026 -
Kelly Saravanan Salford City Aktiv 111 / 115 40% 1 15.12.2026 -
Kilian Fischer VfL Wolfsburg Aktiv 127 / 128 40% 2 13.12.2026 -
Gabriel Pereira FC Copenhagen Aktiv 128 / 125 40% 2 13.12.2026 Mehr Infos nötig
Matej Trusa DAC Dunajska Streda Aktiv 121 / 121 40% 2 13.12.2026 -
Rodrigo Huescas FC Copenhagen Aktiv 125 / 140 40% 1 13.12.2026 -
Dominik Baumgartner Mattersburg Aktiv 100 / 105 40% 5 10.12.2026 -
Abubakr Barry Red Bull Salzburg Aktiv 131 / 125 40% 1 08.12.2026 -
Brian De Keersmaecker Oxford United Aktiv 119 / 120 40% 1 08.12.2026 -
Lee Kang-Hee Austria Wien Aktiv 125 / 121 40% 1 08.12.2026 -
Lewis Gibson Preston Aktiv 119 / 124 40% 1 07.12.2026 -
Armin Gigović Young Boys Aktiv 124 / 119 40% 1 07.12.2026 Mehr Infos nötig
Jacob Peter Hödl Austria Wien Aktiv 118 / 121 40% 3 05.12.2026 -
Tiago Pucciarelli FK Senica Aktiv 100 / 114 40% 1 05.12.2026 -
Pedro Zenit Aktiv 130 / 145 40% 2 03.12.2026 -
Samuele Inácio Borussia Dortmund Aktiv 109 / 119 40% 1 03.12.2026 -
Mohamadou Kanté West Ham United Aktiv 111 / 120 40% 1 03.12.2026 Mehr Infos nötig
Tidiam Gomis RB Leipzig Aktiv 124 / 129 40% 2 02.12.2026 -
Luphumlo Sifumba Maritzburg United Aktiv 84 / 89 40% 1 02.12.2026 -
Rocco Vata Watford Aktiv 126 / 131 40% 1 01.12.2026 -
Yannick Woudstra Admira Wacker Aktiv 94 / 100 40% 1 30.11.2026 -
Fiete Arp OB Aktiv 134 / 136 40% 1 30.11.2026 -
Franko Kovačević Ferencvaros Verloren 124 / 116 40% 1 30.11.2026 -
Luther Billiat Ajax Cape Town Aktiv 126 / 136 40% 2 29.11.2026 -
Maurits Kjærgaard Red Bull Salzburg Aktiv 125 / 126 40% 9 29.11.2026 -
Roméo Amané Rapid Wien Aktiv 122 / 124 40% 1 29.11.2026 -
Eoin Toal Bolton Wanderers Aktiv 120 / 121 40% 1 29.11.2026 -
Ammar Ramadan DAC Dunajska Streda Verloren 116 / 127 40% 1 29.11.2026 -
Sam Greenwood Bristol City Aktiv 119 / 124 40% 1 28.11.2026 -
Etiosa Ighodaro Kaizer Chiefs Aktiv 114 / 102 40% 5 26.11.2026 -
Mike Themsen Randers Aktiv 107 / 123 40% 1 26.11.2026 -
Benjamin Nyarko Admira Wacker Aktiv 89 / 93 40% 1 26.11.2026 -
Sota Kitano Red Bull Salzburg Aktiv 119 / 128 40% 4 24.11.2026 -
Rok Zajc NK Domzale Aktiv 129 / 122 40% 1 23.11.2026 -
Lukas Mai Lugano Aktiv 125 / 131 40% 1 21.11.2026 -
Marlon Gomes Shakhtar Aktiv 129 / 137 40% 1 21.11.2026 -
Assad Al Hamlawi Universitatea Craiova Aktiv 125 / 112 40% 1 19.11.2026 -
Leon Grgić Red Bull Salzburg Aktiv 123 / 131 40% 2 17.11.2026 -
Álex Marchal Real Sociedad Aktiv 109 / 118 40% 1 17.11.2026 -
Danyil Alefirenko Chornomorets Aktiv 106 / 102 40% 1 17.11.2026 -
Soumaïla Diabaté Red Bull Salzburg Aktiv 116 / 111 40% 1 15.11.2026 -
Nikolaus Wurmbrand Brighton Aktiv 115 / 133 40% 1 12.11.2026 -
Mateo Silvetti Inter Miami CF Aktiv 124 / 120 40% 1 12.11.2026 -
Alexander Røssing-Lelesiit Hamburger SV Aktiv 117 / 126 40% 2 09.11.2026 -
Karim Konaté Red Bull Salzburg Aktiv 137 / 141 40% 5 08.11.2026 -
Ignacio Russo Tigre Aktiv 121 / 128 40% 1 08.11.2026 -
Evidence Makgopa Orlando Pirates Aktiv 109 / 120 40% 3 06.11.2026 -
Kein Sato FC Tokyo Aktiv 124 / 125 40% 2 05.11.2026 -
Mfundo Vilakazi Kaizer Chiefs Aktiv 113 / 121 40% 1 05.11.2026 -
Yannik Wagner Heidenheim Aktiv 102 / 109 40% 1 05.11.2026 -
Davinchi Getafe Aktiv 108 / 121 40% 1 03.11.2026 -
Javier Mena Deportivo Pereira Aktiv 100 / 111 40% 1 03.11.2026 -
Matteo di Giusto Luzern Aktiv 125 / 129 40% 3 02.11.2026 -
Joël Monteiro Young Boys Aktiv 127 / 121 40% 1 31.10.2026 -
Kirill Glebov CSKA Moscow Aktiv 125 / 127 40% 1 30.10.2026 -
Ola Brynhildsen Bodo/Glimt Aktiv 125 / 129 40% 2 27.10.2026 -
Luis Engelns TSG Hoffenheim Aktiv 107 / 122 40% 1 25.10.2026 -
Daniel Bassi Lillestrom Aktiv 119 / 121 40% 1 25.10.2026 -
Sanel Šaljić Austria Wien Aktiv 117 / 125 40% 1 21.10.2026 -
Manfred Ugalde Spartak Moscow Aktiv 139 / 128 40% 4 20.10.2026 -
Sinan Karweina Luzern Aktiv 113 / 110 40% 1 17.10.2026 -
Matvey Kislyak CSKA Moscow Aktiv 128 / 143 40% 1 16.10.2026 -
Romeo Vučić Sturm Graz Aktiv 107 / 105 40% 2 13.10.2026 -
Andrin Hunziker St. Gallen Aktiv 110 / 115 40% 1 13.10.2026 -
Cican Stanković Red Bull Salzburg Aktiv 111 / 111 40% 1 09.10.2026 -
Zack Steffen Colorado Rapids Aktiv 126 / 129 40% 1 09.10.2026 -
Marcelo Miño Debrecen Aktiv 118 / 104 40% 1 09.10.2026 -
Rafael Navarro Colorado Rapids Aktiv 125 / 127 40% 1 07.10.2026 -
Tamerlan Musaev CSKA Moscow Aktiv 120 / 108 40% 1 07.10.2026 -
Wandile Duba Bidvest Wits Aktiv 107 / 112 40% 1 06.10.2026 -
Daniil Khudyakov Sturm Graz Aktiv 115 / 120 40% 1 05.10.2026 -
Christian Früchtl Red Bull Salzburg Aktiv 122 / 110 40% 1 05.10.2026 -
Kelvin Boateng Austria Wien Aktiv 110 / 108 40% 1 04.10.2026 -
Ayoub Jabbari FC Cincinnati Aktiv 110 / 110 40% 1 29.09.2026 -
Mateja Bubanj Admira Wacker Aktiv 99 / 100 40% 2 28.09.2026 -
Armindo Sieb Los Angeles Football Club Aktiv 113 / 129 40% 2 28.09.2026 -
Ramiro Ruiz Rodríguez Atlético Tucumán Aktiv 124 / 121 40% 2 27.09.2026 -
Asahi Uenaka Gamba Osaka Aktiv 116 / 119 40% 1 24.09.2026 -
Giacomo Vrioni Wolfsberger AC Aktiv 111 / 119 40% 1 22.09.2026 -
Riku Yamane Yokohama F. Marinos Aktiv 121 / 127 40% 2 21.09.2026 -
Carlo Boukhalfa St. Gallen Aktiv 116 / 120 40% 1 21.09.2026 -
Jahkeele Marshall-Rutty New York Red Bulls Aktiv 120 / 130 40% 1 21.09.2026 -
Ilyas Chouaref Sion Aktiv 124 / 125 40% 1 21.09.2026 -
Darian Maleš Young Boys Aktiv 124 / 127 40% 1 20.09.2026 -
Bendegúz Bolla Rapid Wien Aktiv 124 / 124 40% 1 18.09.2026 -
Martin Ndzie Rapid Wien Aktiv 114 / 117 40% 1 17.09.2026 -
Yannick Bright Inter Miami CF Aktiv 129 / 118 40% 1 17.09.2026 -
Conrad Wallem Valerenga Aktiv 135 / 129 40% 1 16.09.2026 -
Kimito Nono Gamba Osaka Aktiv 125 / 118 40% 1 16.09.2026 -
Mauricio Amaro Atlanta United FC Aktiv 122 / 124 40% 1 16.09.2026 -
Lucas Souto Defensa y Justicia Aktiv 131 / 128 40% 1 14.09.2026 -
Nicolás Romero Minnesota United FC Aktiv 117 / 138 40% 1 14.09.2026 -
Ange Ahoussou Rapid Wien Aktiv 120 / 119 40% 1 14.09.2026 -
Erkin Yalcin Altach Aktiv 89 / 92 40% 1 12.09.2026 -
Uran Bislimi Lugano Aktiv 116 / 126 40% 1 10.09.2026 -
Ameen Al-Dakhil VfB Stuttgart Aktiv 127 / 128 40% 1 10.09.2026 -
Ranko Veselinović Vancouver Whitecaps Aktiv 112 / 120 40% 1 10.09.2026 -
Sean Zawadzki Columbus Crew Aktiv 116 / 115 40% 1 08.09.2026 -
Robert Voloder New York Red Bulls Aktiv 121 / 128 40% 1 08.09.2026 -
Mattia Zanotti Lugano Aktiv 134 / 130 40% 1 07.09.2026 -
Antonios Papadopoulos Lugano Aktiv 129 / 121 40% 1 07.09.2026 -
Moritz Jenz VfL Wolfsburg Aktiv 126 / 125 40% 1 01.08.2026 -